createdAt,value
2023-04-26T00:00:10.280Z,100692.78
2023-04-26T00:05:13.292Z,100700.53
2023-04-26T00:10:15.006Z,100698.09
2023-04-26T00:15:16.667Z,100706.88
2023-04-26T00:20:19.900Z,100707.06
2023-04-26T00:25:21.554Z,100708.03
2023-04-26T00:30:23.155Z,100713.53
2023-04-26T00:35:26.156Z,100708.63
2023-04-26T00:40:27.783Z,100710.97
2023-04-26T00:45:29.703Z,100701.13
2023-04-26T00:50:33.238Z,100705.50
2023-04-26T00:55:35.111Z,100701.53
2023-04-26T01:00:36.820Z,100698.19
2023-04-26T01:05:39.906Z,100702.84
2023-04-26T01:10:41.668Z,100696.56
2023-04-26T01:15:45.428Z,100704.03
2023-04-26T01:20:48.466Z,100692.47
2023-04-26T01:25:52.012Z,100705.09
2023-04-26T01:30:53.699Z,100702.78
2023-04-26T01:35:55.473Z,100705.09
2023-04-26T01:40:58.623Z,100700.31
2023-04-26T01:46:00.283Z,100700.66
2023-04-26T01:51:01.924Z,100699.59
2023-04-26T01:56:05.474Z,100701.00
2023-04-26T02:01:08.721Z,100704.47
2023-04-26T02:06:10.324Z,100705.31
2023-04-26T02:11:13.340Z,100695.00
2023-04-26T02:16:15.060Z,100692.16
2023-04-26T02:21:17.363Z,100706.22
2023-04-26T02:26:20.511Z,100698.56
2023-04-26T02:31:23.097Z,100705.69
2023-04-26T02:36:25.159Z,100702.47
2023-04-26T02:41:28.157Z,100705.63
2023-04-26T02:46:29.854Z,100705.25
2023-04-26T02:51:32.516Z,100705.66
2023-04-26T02:56:35.474Z,100704.41
2023-04-26T03:01:37.165Z,100702.84
2023-04-26T03:06:38.843Z,100703.31
2023-04-26T03:11:41.826Z,100702.03
2023-04-26T03:16:44.667Z,100709.22
2023-04-26T03:21:46.465Z,100706.81
2023-04-26T03:26:49.504Z,100700.09
2023-04-26T03:31:51.190Z,100702.94
2023-04-26T03:36:52.811Z,100709.41
2023-04-26T03:41:55.801Z,100700.72
2023-04-26T03:46:57.451Z,100702.72
2023-04-26T03:51:59.099Z,100686.97
2023-04-26T03:57:02.090Z,100684.44
2023-04-26T04:02:03.744Z,100686.88
2023-04-26T04:07:05.357Z,100689.72
2023-04-26T04:12:08.626Z,100705.88
2023-04-26T04:17:10.315Z,100695.91
2023-04-26T04:22:11.979Z,100707.19
2023-04-26T04:27:14.933Z,100703.09
2023-04-26T04:32:16.510Z,100713.91
2023-04-26T04:37:18.093Z,100716.94
2023-04-26T04:42:21.148Z,100732.28
2023-04-26T04:47:22.879Z,100731.59
2023-04-26T04:52:24.534Z,100733.13
2023-04-26T04:57:27.594Z,100740.53
2023-04-26T05:02:29.405Z,100745.41
2023-04-26T05:07:31.359Z,100748.41
2023-04-26T05:12:34.378Z,100739.34
2023-04-26T05:17:36.061Z,100752.25
2023-04-26T05:22:37.705Z,100749.66
2023-04-26T05:27:40.825Z,100746.97
2023-04-26T05:32:42.573Z,100749.63
2023-04-26T05:37:44.231Z,100762.44
2023-04-26T05:42:47.211Z,100762.19
2023-04-26T05:47:48.837Z,100772.13
2023-04-26T05:52:50.532Z,100769.09
2023-04-26T05:57:53.532Z,100769.19
2023-04-26T06:02:55.306Z,100779.28
2023-04-26T06:07:57.244Z,100781.16
2023-04-26T06:13:00.220Z,100769.19
2023-04-26T06:18:01.906Z,100779.47
2023-04-26T06:23:03.566Z,100766.19
2023-04-26T06:28:06.622Z,100768.50
2023-04-26T06:33:08.328Z,100756.28
2023-04-26T06:38:10.138Z,100763.63
2023-04-26T06:43:13.269Z,100761.19
2023-04-26T06:48:14.904Z,100764.50
2023-04-26T06:53:16.509Z,100768.41
2023-04-26T06:58:19.634Z,100768.38
2023-04-26T07:03:21.518Z,100766.56
2023-04-26T07:08:23.387Z,100757.69
2023-04-26T07:13:26.374Z,100762.72
2023-04-26T07:18:28.035Z,100753.44
2023-04-26T07:23:29.772Z,100754.84
2023-04-26T07:28:33.253Z,100750.34
2023-04-26T07:33:35.006Z,100751.50
2023-04-26T07:38:36.776Z,100748.28
2023-04-26T07:43:39.762Z,100743.13
2023-04-26T07:48:41.390Z,100736.84
2023-04-26T07:53:43.057Z,100740.72
2023-04-26T07:58:46.036Z,100744.22
2023-04-26T08:03:47.963Z,100739.56
2023-04-26T08:08:50.861Z,100737.13
2023-04-26T08:13:54.222Z,100739.97
2023-04-26T08:18:56.146Z,100744.75
2023-04-26T08:23:57.854Z,100739.63
2023-04-26T08:29:00.940Z,100735.25
2023-04-26T08:34:02.580Z,100729.16
2023-04-26T08:39:04.460Z,100737.97
2023-04-26T08:44:08.557Z,100735.94
2023-04-26T08:49:18.832Z,100734.06
2023-04-26T08:54:20.803Z,100737.72
2023-04-26T08:59:23.962Z,100724.81
2023-04-26T09:04:25.764Z,100713.59
2023-04-26T09:09:29.489Z,100716.00
2023-04-26T09:14:32.750Z,100708.38
2023-04-26T09:19:39.150Z,100697.09
2023-04-26T09:24:47.979Z,100698.00
2023-04-26T09:30:04.690Z,100687.66
2023-04-26T09:35:07.136Z,100696.72
2023-04-26T09:40:18.903Z,100695.91
2023-04-26T09:45:22.021Z,100693.69
2023-04-26T09:50:28.038Z,100697.25
2023-04-26T09:55:35.522Z,100683.59
2023-04-26T10:00:41.579Z,100686.16
2023-04-26T10:05:43.409Z,100691.25
2023-04-26T10:10:45.086Z,100677.72
2023-04-26T10:15:48.700Z,100672.59
2023-04-26T10:20:53.740Z,100671.88
2023-04-26T10:25:56.420Z,100659.72
2023-04-26T10:31:00.259Z,100658.91
2023-04-26T10:36:08.183Z,100660.94
2023-04-26T10:41:30.188Z,100648.03
2023-04-26T10:46:40.723Z,100644.09
2023-04-26T10:52:11.012Z,100641.03
2023-04-26T10:57:12.882Z,100635.78
2023-04-26T11:02:16.040Z,100645.34
2023-04-26T11:07:36.613Z,100631.19
2023-04-26T11:12:41.811Z,100627.44
2023-04-26T11:17:44.995Z,100627.84
2023-04-26T11:22:47.883Z,100611.44
2023-04-26T11:27:49.590Z,100611.03
2023-04-26T11:32:52.766Z,100613.88
2023-04-26T11:37:54.397Z,100596.06
2023-04-26T11:42:59.643Z,100591.69
2023-04-26T11:48:04.383Z,100592.41
2023-04-26T11:53:08.053Z,100588.69
2023-04-26T11:58:11.029Z,100593.91
2023-04-26T12:03:15.251Z,100597.03
2023-04-26T12:08:16.985Z,100591.44
2023-04-26T12:13:19.324Z,100582.59
2023-04-26T12:18:22.372Z,100592.38
2023-04-26T12:23:24.048Z,100587.25
2023-04-26T12:28:26.098Z,100585.59
2023-04-26T12:33:29.222Z,100582.66
2023-04-26T12:38:30.869Z,100577.06
2023-04-26T12:43:32.551Z,100577.88
2023-04-26T12:48:35.710Z,100574.69
2023-04-26T12:53:37.361Z,100577.06
2023-04-26T12:58:38.989Z,100579.34
2023-04-26T13:03:42.207Z,100578.34
2023-04-26T13:08:43.897Z,100589.66
2023-04-26T13:13:45.716Z,100589.25
2023-04-26T13:18:48.807Z,100586.44
2023-04-26T13:23:50.393Z,100575.09
2023-04-26T13:28:52.072Z,100574.28
2023-04-26T13:33:55.058Z,100575.84
2023-04-26T13:38:56.711Z,100569.88
2023-04-26T13:43:58.364Z,100570.22
2023-04-26T13:49:01.439Z,100566.75
2023-04-26T13:54:03.600Z,100559.53
2023-04-26T13:59:05.331Z,100554.53
2023-04-26T14:04:11.414Z,100543.47
2023-04-26T14:09:13.413Z,100539.28
2023-04-26T14:14:15.143Z,100543.03
2023-04-26T14:19:18.286Z,100534.41
2023-04-26T14:24:19.904Z,100530.34
2023-04-26T14:29:21.526Z,100523.25
2023-04-26T14:34:24.533Z,100521.84
2023-04-26T14:39:26.318Z,100526.47
2023-04-26T14:44:28.206Z,100529.41
2023-04-26T14:49:31.203Z,100530.25
2023-04-26T14:54:37.653Z,100519.75
2023-04-26T14:59:39.306Z,100525.16
2023-04-26T15:04:42.496Z,100513.50
2023-04-26T15:09:44.412Z,100507.50
2023-04-26T15:14:46.017Z,100507.66
2023-04-26T15:19:49.117Z,100502.03
2023-04-26T15:24:51.004Z,100508.03
2023-04-26T15:29:53.568Z,100498.00
2023-04-26T15:34:56.657Z,100502.56
2023-04-26T15:39:58.326Z,100493.00
2023-04-26T15:44:59.906Z,100491.88
2023-04-26T15:50:04.032Z,100492.56
2023-04-26T15:55:06.580Z,100488.66
2023-04-26T16:00:09.438Z,100485.88
2023-04-26T16:05:12.617Z,100483.09
2023-04-26T16:10:14.341Z,100479.44
2023-04-26T16:15:16.148Z,100473.47
2023-04-26T16:20:19.177Z,100482.78
2023-04-26T16:25:21.000Z,100474.28
2023-04-26T16:30:22.705Z,100473.56
2023-04-26T16:35:25.974Z,100468.75
2023-04-26T16:40:27.654Z,100467.38
2023-04-26T16:45:29.320Z,100472.06
2023-04-26T16:50:32.524Z,100475.81
2023-04-26T16:55:34.145Z,100471.03
2023-04-26T17:00:35.759Z,100468.56
2023-04-26T17:05:40.025Z,100474.41
2023-04-26T17:10:41.911Z,100478.69
2023-04-26T17:15:43.748Z,100483.72
2023-04-26T17:20:46.817Z,100483.22
2023-04-26T17:25:48.486Z,100479.41
2023-04-26T17:30:50.147Z,100487.53
2023-04-26T17:35:53.189Z,100501.41
2023-04-26T17:40:54.841Z,100508.28
2023-04-26T17:45:56.608Z,100503.25
2023-04-26T17:50:59.709Z,100509.69
2023-04-26T17:56:01.371Z,100511.69
2023-04-26T18:01:04.289Z,100517.53
2023-04-26T18:06:07.652Z,100523.50
2023-04-26T18:11:09.283Z,100531.34
2023-04-26T18:16:10.868Z,100539.75
2023-04-26T18:21:13.890Z,100542.41
2023-04-26T18:26:15.523Z,100542.91
2023-04-26T18:31:17.129Z,100552.03
2023-04-26T18:36:20.173Z,100549.78
2023-04-26T18:41:21.891Z,100565.50
2023-04-26T18:46:23.526Z,100575.22
2023-04-26T18:51:26.773Z,100581.91
2023-04-26T18:56:28.954Z,100585.28
2023-04-26T19:01:30.712Z,100581.75
2023-04-26T19:06:33.795Z,100585.22
2023-04-26T19:11:35.405Z,100603.63
2023-04-26T19:16:37.185Z,100608.63
2023-04-26T19:21:43.702Z,100605.97
2023-04-26T19:26:45.402Z,100618.41
2023-04-26T19:31:47.103Z,100613.63
2023-04-26T19:36:50.112Z,100627.97
2023-04-26T19:41:51.735Z,100632.75
2023-04-26T19:46:53.477Z,100631.31
2023-04-26T19:51:56.529Z,100625.91
2023-04-26T19:56:58.160Z,100625.97
2023-04-26T20:01:59.813Z,100639.75
2023-04-26T20:07:02.940Z,100642.41
2023-04-26T20:12:04.898Z,100653.16
2023-04-26T20:17:06.509Z,100653.34
2023-04-26T20:22:09.570Z,100650.72
2023-04-26T20:27:11.223Z,100652.19
2023-04-26T20:32:12.898Z,100654.84
2023-04-26T20:37:16.012Z,100660.97
2023-04-26T20:42:17.620Z,100662.94
2023-04-26T20:47:19.455Z,100659.69
2023-04-26T20:52:22.479Z,100664.94
2023-04-26T20:57:24.208Z,100666.06
2023-04-26T21:02:26.152Z,100677.75
2023-04-26T21:07:29.275Z,100667.00
2023-04-26T21:12:30.850Z,100668.13
2023-04-26T21:17:32.515Z,100667.25
2023-04-26T21:22:35.655Z,100669.88
2023-04-26T21:27:37.257Z,100678.09
2023-04-26T21:32:38.866Z,100672.19
2023-04-26T21:37:41.883Z,100675.28
2023-04-26T21:42:48.903Z,100681.25
2023-04-26T21:47:56.060Z,100683.00
2023-04-26T21:52:59.111Z,100679.81
2023-04-26T21:58:00.694Z,100673.28
2023-04-26T22:03:02.431Z,100685.94
2023-04-26T22:08:05.739Z,100690.97
2023-04-26T22:13:07.451Z,100696.94
2023-04-26T22:18:09.267Z,100710.31
2023-04-26T22:23:12.304Z,100721.25
2023-04-26T22:28:15.365Z,100725.28
2023-04-26T22:33:17.008Z,100731.13
2023-04-26T22:38:19.983Z,100729.28
2023-04-26T22:43:22.582Z,100727.41
2023-04-26T22:48:24.286Z,100729.94
2023-04-26T22:53:27.371Z,100729.41
2023-04-26T22:58:28.973Z,100721.84
2023-04-26T23:03:30.858Z,100729.22
2023-04-26T23:08:34.057Z,100717.59
2023-04-26T23:13:35.790Z,100719.97
2023-04-26T23:18:37.446Z,100713.41
2023-04-26T23:23:40.428Z,100718.28
2023-04-26T23:28:42.307Z,100709.91
2023-04-26T23:33:44.112Z,100719.47
2023-04-26T23:38:47.095Z,100713.66
2023-04-26T23:43:48.722Z,100717.66
2023-04-26T23:48:50.367Z,100726.34
2023-04-26T23:53:53.816Z,100719.31
2023-04-26T23:58:55.418Z,100713.16
